sensor_id;sensor_type;location;lat;lon;timestamp;pressure;altitude;pressure_sealevel;temperature;humidity
69402;BME280;56589;51.992;5.924;2022-07-12T00:00:28;101911.47;;;16.54;69.01
69402;BME280;56589;51.992;5.924;2022-07-12T00:02:54;101920.38;;;16.53;69.50
69402;BME280;56589;51.992;5.924;2022-07-12T00:05:20;101915.19;;;16.52;69.23
69402;BME280;56589;51.992;5.924;2022-07-12T00:07:46;101910.94;;;16.49;69.01
69402;BME280;56589;51.992;5.924;2022-07-12T00:10:12;101905.75;;;16.48;69.05
69402;BME280;56589;51.992;5.924;2022-07-12T00:12:37;101904.06;;;16.46;69.50
69402;BME280;56589;51.992;5.924;2022-07-12T00:15:08;101905.03;;;16.45;69.43
69402;BME280;56589;51.992;5.924;2022-07-12T00:17:34;101898.13;;;16.43;69.77
69402;BME280;56589;51.992;5.924;2022-07-12T00:20:00;101898.25;;;16.41;69.66
69402;BME280;56589;51.992;5.924;2022-07-12T00:22:26;101900.28;;;16.38;69.95
69402;BME280;56589;51.992;5.924;2022-07-12T00:24:52;101897.84;;;16.35;70.07
69402;BME280;56589;51.992;5.924;2022-07-12T00:27:17;101889.16;;;16.33;69.52
69402;BME280;56589;51.992;5.924;2022-07-12T00:29:43;101891.03;;;16.31;69.64
69402;BME280;56589;51.992;5.924;2022-07-12T00:32:11;101888.50;;;16.29;70.06
69402;BME280;56589;51.992;5.924;2022-07-12T00:34:37;101887.78;;;16.27;70.22
69402;BME280;56589;51.992;5.924;2022-07-12T00:37:03;101886.09;;;16.26;70.14
69402;BME280;56589;51.992;5.924;2022-07-12T00:39:29;101886.19;;;16.25;70.09
69402;BME280;56589;51.992;5.924;2022-07-12T00:41:55;101888.09;;;16.23;70.53
69402;BME280;56589;51.992;5.924;2022-07-12T00:44:20;101884.72;;;16.21;70.13
69402;BME280;56589;51.992;5.924;2022-07-12T00:46:46;101881.31;;;16.18;70.17
69402;BME280;56589;51.992;5.924;2022-07-12T00:49:14;101886.72;;;16.17;70.80
69402;BME280;56589;51.992;5.924;2022-07-12T00:51:41;101877.94;;;16.16;70.38
69402;BME280;56589;51.992;5.924;2022-07-12T00:54:08;101882.38;;;16.16;70.42
69402;BME280;56589;51.992;5.924;2022-07-12T00:56:34;101882.50;;;16.14;70.61
69402;BME280;56589;51.992;5.924;2022-07-12T00:59:00;101880.88;;;16.12;70.49
69402;BME280;56589;51.992;5.924;2022-07-12T01:01:26;101879.19;;;16.11;70.63
69402;BME280;56589;51.992;5.924;2022-07-12T01:03:52;101881.13;;;16.09;70.48
69402;BME280;56589;51.992;5.924;2022-07-12T01:06:22;101887.25;;;16.09;70.85
69402;BME280;56589;51.992;5.924;2022-07-12T01:08:49;101885.56;;;16.08;70.68
69402;BME280;56589;51.992;5.924;2022-07-12T01:11:15;101890.03;;;16.08;70.74
69402;BME280;56589;51.992;5.924;2022-07-12T01:13:42;101888.41;;;16.05;70.70
69402;BME280;56589;51.992;5.924;2022-07-12T01:16:08;101885.16;;;16.02;71.26
69402;BME280;56589;51.992;5.924;2022-07-12T01:18:39;101890.47;;;16.02;71.50
69402;BME280;56589;51.992;5.924;2022-07-12T01:21:07;101892.47;;;15.98;71.09
69402;BME280;56589;51.992;5.924;2022-07-12T01:23:37;101897.88;;;15.97;71.35
69402;BME280;56589;51.992;5.924;2022-07-12T01:26:04;101900.63;;;15.95;71.42
69402;BME280;56589;51.992;5.924;2022-07-12T01:28:30;101902.63;;;15.91;71.94
69402;BME280;56589;51.992;5.924;2022-07-12T01:30:56;101901.78;;;15.91;71.84
69402;BME280;56589;51.992;5.924;2022-07-12T01:33:22;101910.56;;;15.91;72.11
69402;BME280;56589;51.992;5.924;2022-07-12T01:35:50;101911.66;;;15.89;72.29
69402;BME280;56589;51.992;5.924;2022-07-12T01:38:16;101916.28;;;15.85;72.10
69402;BME280;56589;51.992;5.924;2022-07-12T01:40:44;101915.66;;;15.82;72.59
69402;BME280;56589;51.992;5.924;2022-07-12T01:43:10;101913.94;;;15.81;72.30
69402;BME280;56589;51.992;5.924;2022-07-12T01:45:36;101918.41;;;15.80;72.69
69402;BME280;56589;51.992;5.924;2022-07-12T01:48:03;101912.38;;;15.78;72.72
69402;BME280;56589;51.992;5.924;2022-07-12T01:50:29;101916.09;;;15.76;72.26
69402;BME280;56589;51.992;5.924;2022-07-12T01:52:55;101919.59;;;15.76;72.37
69402;BME280;56589;51.992;5.924;2022-07-12T01:55:20;101924.97;;;15.75;72.20
69402;BME280;56589;51.992;5.924;2022-07-12T01:57:49;101923.25;;;15.74;72.85
69402;BME280;56589;51.992;5.924;2022-07-12T02:00:15;101919.88;;;15.72;72.38
69402;BME280;56589;51.992;5.924;2022-07-12T02:02:43;101913.75;;;15.71;72.46
69402;BME280;56589;51.992;5.924;2022-07-12T02:05:10;101921.69;;;15.71;73.04
69402;BME280;56589;51.992;5.924;2022-07-12T02:07:36;101921.84;;;15.68;72.75
69402;BME280;56589;51.992;5.924;2022-07-12T02:10:04;101917.50;;;15.67;72.78
69402;BME280;56589;51.992;5.924;2022-07-12T02:12:31;101920.25;;;15.65;72.45
69402;BME280;56589;51.992;5.924;2022-07-12T02:14:59;101914.13;;;15.65;72.56
69402;BME280;56589;51.992;5.924;2022-07-12T02:17:25;101910.63;;;15.64;72.46
69402;BME280;56589;51.992;5.924;2022-07-12T02:19:51;101902.88;;;15.61;72.29
69402;BME280;56589;51.992;5.924;2022-07-12T02:22:17;101904.78;;;15.59;72.33
69402;BME280;56589;51.992;5.924;2022-07-12T02:24:43;101904.13;;;15.56;72.99
69402;BME280;56589;51.992;5.924;2022-07-12T02:27:09;101903.41;;;15.54;72.64
69402;BME280;56589;51.992;5.924;2022-07-12T02:29:35;101905.22;;;15.53;72.80
69402;BME280;56589;51.992;5.924;2022-07-12T02:32:04;101902.75;;;15.50;72.69
69402;BME280;56589;51.992;5.924;2022-07-12T02:34:30;101902.00;;;15.48;72.79
69402;BME280;56589;51.992;5.924;2022-07-12T02:36:55;101902.13;;;15.47;72.81
69402;BME280;56589;51.992;5.924;2022-07-12T02:39:21;101903.06;;;15.46;73.20
69402;BME280;56589;51.992;5.924;2022-07-12T02:41:47;101903.16;;;15.44;73.03
69402;BME280;56589;51.992;5.924;2022-07-12T02:44:13;101899.66;;;15.44;73.46
69402;BME280;56589;51.992;5.924;2022-07-12T02:46:39;101899.78;;;15.42;73.07
69402;BME280;56589;51.992;5.924;2022-07-12T02:49:07;101898.28;;;15.38;73.22
69402;BME280;56589;51.992;5.924;2022-07-12T02:51:33;101903.56;;;15.38;73.21
69402;BME280;56589;51.992;5.924;2022-07-12T02:53:59;101906.22;;;15.38;73.54
69402;BME280;56589;51.992;5.924;2022-07-12T02:56:24;101899.22;;;15.37;73.64
69402;BME280;56589;51.992;5.924;2022-07-12T02:58:50;101898.28;;;15.38;73.76
69402;BME280;56589;51.992;5.924;2022-07-12T03:01:16;101905.38;;;15.37;73.59
69402;BME280;56589;51.992;5.924;2022-07-12T03:03:42;101907.28;;;15.35;73.54
69402;BME280;56589;51.992;5.924;2022-07-12T03:06:10;101907.47;;;15.32;73.46
69402;BME280;56589;51.992;5.924;2022-07-12T03:08:36;101911.06;;;15.31;73.49
69402;BME280;56589;51.992;5.924;2022-07-12T03:11:02;101899.84;;;15.28;73.47
69402;BME280;56589;51.992;5.924;2022-07-12T03:13:28;101901.72;;;15.26;73.84
69402;BME280;56589;51.992;5.924;2022-07-12T03:15:54;101912.53;;;15.23;73.79
69402;BME280;56589;51.992;5.924;2022-07-12T03:18:19;101907.34;;;15.21;73.93
69402;BME280;56589;51.992;5.924;2022-07-12T03:20:45;101904.78;;;15.20;73.93
69402;BME280;56589;51.992;5.924;2022-07-12T03:23:14;101910.06;;;15.20;74.21
69402;BME280;56589;51.992;5.924;2022-07-12T03:25:40;101905.75;;;15.19;73.98
69402;BME280;56589;51.992;5.924;2022-07-12T03:28:05;101904.88;;;15.18;74.51
69402;BME280;56589;51.992;5.924;2022-07-12T03:30:31;101906.78;;;15.16;74.18
69402;BME280;56589;51.992;5.924;2022-07-12T03:32:57;101899.81;;;15.15;74.14
69402;BME280;56589;51.992;5.924;2022-07-12T03:35:23;101898.97;;;15.15;74.69
69402;BME280;56589;51.992;5.924;2022-07-12T03:37:50;101894.72;;;15.12;74.66
69402;BME280;56589;51.992;5.924;2022-07-12T03:40:21;101893.69;;;15.15;74.88
69402;BME280;56589;51.992;5.924;2022-07-12T03:42:47;101898.88;;;15.16;74.79
69402;BME280;56589;51.992;5.924;2022-07-12T03:45:14;101899.59;;;15.18;74.36
69402;BME280;56589;51.992;5.924;2022-07-12T03:47:40;101897.06;;;15.17;74.21
69402;BME280;56589;51.992;5.924;2022-07-12T03:50:08;101900.56;;;15.17;74.64
69402;BME280;56589;51.992;5.924;2022-07-12T03:52:35;101893.47;;;15.18;74.53
69402;BME280;56589;51.992;5.924;2022-07-12T03:55:02;101890.72;;;15.19;74.63
69402;BME280;56589;51.992;5.924;2022-07-12T03:57:32;101881.94;;;15.19;74.30
69402;BME280;56589;51.992;5.924;2022-07-12T03:59:58;101884.47;;;15.20;74.60
69402;BME280;56589;51.992;5.924;2022-07-12T04:02:24;101876.44;;;15.22;74.27
69402;BME280;56589;51.992;5.924;2022-07-12T04:04:50;101870.09;;;15.24;74.28
69402;BME280;56589;51.992;5.924;2022-07-12T04:07:16;101868.28;;;15.25;74.80
69402;BME280;56589;51.992;5.924;2022-07-12T04:09:42;101871.88;;;15.24;74.88
69402;BME280;56589;51.992;5.924;2022-07-12T04:12:09;101874.34;;;15.27;74.68
69402;BME280;56589;51.992;5.924;2022-07-12T04:14:37;101874.13;;;15.30;74.53
69402;BME280;56589;51.992;5.924;2022-07-12T04:17:03;101873.06;;;15.32;74.94
69402;BME280;56589;51.992;5.924;2022-07-12T04:19:30;101880.81;;;15.35;74.71
69402;BME280;56589;51.992;5.924;2022-07-12T04:21:56;101879.56;;;15.41;75.07
69402;BME280;56589;51.992;5.924;2022-07-12T04:24:23;101885.41;;;15.46;74.95
69402;BME280;56589;51.992;5.924;2022-07-12T04:26:49;101890.16;;;15.54;74.93
69402;BME280;56589;51.992;5.924;2022-07-12T04:29:15;101892.28;;;15.61;74.70
69402;BME280;56589;51.992;5.924;2022-07-12T04:31:43;101887.66;;;15.65;74.81
69402;BME280;56589;51.992;5.924;2022-07-12T04:34:09;101903.03;;;15.73;75.53
69402;BME280;56589;51.992;5.924;2022-07-12T04:36:35;101906.53;;;15.86;75.53
69402;BME280;56589;51.992;5.924;2022-07-12T04:39:01;101914.16;;;16.29;77.95
69402;BME280;56589;51.992;5.924;2022-07-12T04:41:27;101918.63;;;17.14;77.98
69402;BME280;56589;51.992;5.924;2022-07-12T04:43:53;101925.47;;;18.11;76.25
69402;BME280;56589;51.992;5.924;2022-07-12T04:46:19;101920.56;;;19.06;73.53
69402;BME280;56589;51.992;5.924;2022-07-12T04:48:47;101917.31;;;19.87;71.00
69402;BME280;56589;51.992;5.924;2022-07-12T04:51:13;101919.72;;;20.42;69.25
69402;BME280;56589;51.992;5.924;2022-07-12T04:53:39;101918.59;;;20.94;68.07
69402;BME280;56589;51.992;5.924;2022-07-12T04:56:05;101909.91;;;21.50;66.99
69402;BME280;56589;51.992;5.924;2022-07-12T04:58:31;101913.19;;;22.11;64.82
69402;BME280;56589;51.992;5.924;2022-07-12T05:00:57;101921.63;;;22.53;62.74
69402;BME280;56589;51.992;5.924;2022-07-12T05:03:23;101926.75;;;22.74;62.44
69402;BME280;56589;51.992;5.924;2022-07-12T05:05:52;101924.44;;;23.06;61.67
69402;BME280;56589;51.992;5.924;2022-07-12T05:08:19;101924.44;;;23.42;61.27
69402;BME280;56589;51.992;5.924;2022-07-12T05:10:44;101926.22;;;24.03;59.42
69402;BME280;56589;51.992;5.924;2022-07-12T05:13:10;101934.41;;;24.62;57.70
69402;BME280;56589;51.992;5.924;2022-07-12T05:15:37;101942.81;;;25.17;56.54
69402;BME280;56589;51.992;5.924;2022-07-12T05:18:03;101949.41;;;25.72;55.00
69402;BME280;56589;51.992;5.924;2022-07-12T05:20:29;101942.47;;;26.18;53.71
69402;BME280;56589;51.992;5.924;2022-07-12T05:22:57;101951.41;;;26.58;52.50
69402;BME280;56589;51.992;5.924;2022-07-12T05:25:23;101957.63;;;26.98;51.64
69402;BME280;56589;51.992;5.924;2022-07-12T05:27:49;101961.63;;;27.33;50.43
69402;BME280;56589;51.992;5.924;2022-07-12T05:30:14;101961.84;;;27.69;49.40
69402;BME280;56589;51.992;5.924;2022-07-12T05:32:40;101967.34;;;27.99;48.87
69402;BME280;56589;51.992;5.924;2022-07-12T05:35:07;101977.03;;;28.23;47.66
69402;BME280;56589;51.992;5.924;2022-07-12T05:37:33;101974.97;;;28.39;47.50
69402;BME280;56589;51.992;5.924;2022-07-12T05:40:02;101980.84;;;28.73;46.55
69402;BME280;56589;51.992;5.924;2022-07-12T05:42:28;101992.03;;;29.06;45.26
69402;BME280;56589;51.992;5.924;2022-07-12T05:44:54;101983.78;;;28.92;45.26
69402;BME280;56589;51.992;5.924;2022-07-12T05:47:20;101981.03;;;28.41;44.84
69402;BME280;56589;51.992;5.924;2022-07-12T05:49:46;101980.66;;;27.77;45.37
69402;BME280;56589;51.992;5.924;2022-07-12T05:52:11;101984.84;;;27.11;46.22
69402;BME280;56589;51.992;5.924;2022-07-12T05:54:38;101992.47;;;26.60;47.17
69402;BME280;56589;51.992;5.924;2022-07-12T05:57:06;101992.88;;;26.41;48.10
69402;BME280;56589;51.992;5.924;2022-07-12T05:59:34;101995.50;;;26.65;48.64
69402;BME280;56589;51.992;5.924;2022-07-12T06:02:00;101995.72;;;27.26;47.44
69402;BME280;56589;51.992;5.924;2022-07-12T06:04:26;101989.47;;;27.94;46.83
69402;BME280;56589;51.992;5.924;2022-07-12T06:06:51;101994.44;;;28.50;45.87
69402;BME280;56589;51.992;5.924;2022-07-12T06:09:17;101993.09;;;29.05;45.16
69402;BME280;56589;51.992;5.924;2022-07-12T06:11:43;101998.88;;;29.59;44.12
69402;BME280;56589;51.992;5.924;2022-07-12T06:14:11;102000.41;;;29.90;42.94
69402;BME280;56589;51.992;5.924;2022-07-12T06:16:37;102000.53;;;30.10;42.54
69402;BME280;56589;51.992;5.924;2022-07-12T06:19:03;101991.97;;;30.34;42.19
69402;BME280;56589;51.992;5.924;2022-07-12T06:21:29;102002.66;;;30.49;41.81
69402;BME280;56589;51.992;5.924;2022-07-12T06:23:54;101999.38;;;30.53;41.35
69402;BME280;56589;51.992;5.924;2022-07-12T06:26:20;102002.25;;;30.45;40.91
69402;BME280;56589;51.992;5.924;2022-07-12T06:28:46;102007.28;;;30.20;41.16
69402;BME280;56589;51.992;5.924;2022-07-12T06:31:14;102005.97;;;30.10;41.07
69402;BME280;56589;51.992;5.924;2022-07-12T06:33:40;102004.41;;;29.94;41.32
69402;BME280;56589;51.992;5.924;2022-07-12T06:36:06;102007.13;;;29.94;41.41
69402;BME280;56589;51.992;5.924;2022-07-12T06:38:32;101996.13;;;30.02;41.08
69402;BME280;56589;51.992;5.924;2022-07-12T06:40:58;101992.06;;;30.19;40.97
69402;BME280;56589;51.992;5.924;2022-07-12T06:43:24;101985.00;;;30.18;40.82
69402;BME280;56589;51.992;5.924;2022-07-12T06:45:49;101987.28;;;29.93;40.77
69402;BME280;56589;51.992;5.924;2022-07-12T06:48:18;101982.31;;;29.47;40.97
69402;BME280;56589;51.992;5.924;2022-07-12T06:50:44;101988.25;;;29.00;41.86
69402;BME280;56589;51.992;5.924;2022-07-12T06:53:11;101984.75;;;28.70;41.96
69402;BME280;56589;51.992;5.924;2022-07-12T06:55:37;101977.59;;;28.48;42.64
69402;BME280;56589;51.992;5.924;2022-07-12T06:58:03;101986.25;;;28.43;42.93
69402;BME280;56589;51.992;5.924;2022-07-12T07:00:28;101980.09;;;28.49;42.71
69402;BME280;56589;51.992;5.924;2022-07-12T07:02:54;101991.59;;;28.66;42.51
69402;BME280;56589;51.992;5.924;2022-07-12T07:05:22;101994.75;;;29.06;42.44
69402;BME280;56589;51.992;5.924;2022-07-12T07:07:48;101994.75;;;29.42;42.29
69402;BME280;56589;51.992;5.924;2022-07-12T07:10:14;101992.91;;;29.92;41.62
69402;BME280;56589;51.992;5.924;2022-07-12T07:12:40;101991.81;;;30.42;40.70
69402;BME280;56589;51.992;5.924;2022-07-12T07:15:06;102001.00;;;30.82;40.10
69402;BME280;56589;51.992;5.924;2022-07-12T07:17:32;102000.69;;;31.19;39.03
69402;BME280;56589;51.992;5.924;2022-07-12T07:19:58;101995.31;;;31.52;38.60
69402;BME280;56589;51.992;5.924;2022-07-12T07:22:30;101999.53;;;31.87;38.08
69402;BME280;56589;51.992;5.924;2022-07-12T07:24:55;102003.63;;;32.36;37.71
69402;BME280;56589;51.992;5.924;2022-07-12T07:27:21;102000.22;;;32.61;37.02
69402;BME280;56589;51.992;5.924;2022-07-12T07:29:47;102000.94;;;32.88;36.53
69402;BME280;56589;51.992;5.924;2022-07-12T07:32:13;102000.47;;;33.04;36.15
69402;BME280;56589;51.992;5.924;2022-07-12T07:34:38;102003.66;;;33.01;35.92
69402;BME280;56589;51.992;5.924;2022-07-12T07:37:04;102004.56;;;32.75;35.85
69402;BME280;56589;51.992;5.924;2022-07-12T07:39:33;102007.66;;;32.27;36.44
69402;BME280;56589;51.992;5.924;2022-07-12T07:41:59;102000.78;;;32.05;36.22
69402;BME280;56589;51.992;5.924;2022-07-12T07:44:25;101995.78;;;31.88;36.12
69402;BME280;56589;51.992;5.924;2022-07-12T07:46:50;101999.31;;;31.69;36.28
69402;BME280;56589;51.992;5.924;2022-07-12T07:49:16;101999.03;;;31.31;36.58
69402;BME280;56589;51.992;5.924;2022-07-12T07:51:42;101996.81;;;30.80;37.04
69402;BME280;56589;51.992;5.924;2022-07-12T07:54:08;102004.97;;;30.17;37.59
69402;BME280;56589;51.992;5.924;2022-07-12T07:56:36;101997.13;;;29.73;38.04
69402;BME280;56589;51.992;5.924;2022-07-12T07:59:02;101987.03;;;29.39;38.87
69402;BME280;56589;51.992;5.924;2022-07-12T08:01:28;101994.91;;;29.19;39.21
69402;BME280;56589;51.992;5.924;2022-07-12T08:03:54;101992.63;;;29.16;39.67
69402;BME280;56589;51.992;5.924;2022-07-12T08:06:19;101989.16;;;29.22;39.58
69402;BME280;56589;51.992;5.924;2022-07-12T08:08:45;101994.63;;;29.29;39.59
69402;BME280;56589;51.992;5.924;2022-07-12T08:11:11;101992.69;;;29.44;39.44
69402;BME280;56589;51.992;5.924;2022-07-12T08:13:39;101990.28;;;29.56;39.36
69402;BME280;56589;51.992;5.924;2022-07-12T08:16:05;101993.81;;;29.56;39.20
69402;BME280;56589;51.992;5.924;2022-07-12T08:18:31;101990.75;;;29.38;38.50
69402;BME280;56589;51.992;5.924;2022-07-12T08:20:57;101987.78;;;29.11;38.96
69402;BME280;56589;51.992;5.924;2022-07-12T08:23:22;101983.28;;;29.04;39.67
69402;BME280;56589;51.992;5.924;2022-07-12T08:25:48;101987.94;;;29.10;39.24
69402;BME280;56589;51.992;5.924;2022-07-12T08:28:14;101987.84;;;29.18;39.31
69402;BME280;56589;51.992;5.924;2022-07-12T08:30:42;101997.75;;;29.32;39.07
69402;BME280;56589;51.992;5.924;2022-07-12T08:33:08;101997.75;;;29.32;38.89
69402;BME280;56589;51.992;5.924;2022-07-12T08:35:35;101995.81;;;29.26;38.96
69402;BME280;56589;51.992;5.924;2022-07-12T08:38:00;101992.34;;;29.32;38.99
69402;BME280;56589;51.992;5.924;2022-07-12T08:40:26;101999.19;;;29.28;38.78
69402;BME280;56589;51.992;5.924;2022-07-12T08:42:56;102006.13;;;29.16;39.21
69402;BME280;56589;51.992;5.924;2022-07-12T08:45:22;101996.25;;;29.08;38.98
69402;BME280;56589;51.992;5.924;2022-07-12T08:47:50;101999.66;;;28.95;39.12
69402;BME280;56589;51.992;5.924;2022-07-12T08:50:17;101996.41;;;28.85;39.71
69402;BME280;56589;51.992;5.924;2022-07-12T08:52:46;101999.66;;;28.95;38.98
69402;BME280;56589;51.992;5.924;2022-07-12T08:55:17;102010.78;;;29.22;38.61
69402;BME280;56589;51.992;5.924;2022-07-12T08:57:49;102014.09;;;29.39;38.80
69402;BME280;56589;51.992;5.924;2022-07-12T09:00:17;102013.81;;;29.55;38.15
69402;BME280;56589;51.992;5.924;2022-07-12T09:02:43;102012.66;;;29.64;38.21
69402;BME280;56589;51.992;5.924;2022-07-12T09:05:16;102006.34;;;29.57;38.35
69402;BME280;56589;51.992;5.924;2022-07-12T09:07:43;102012.59;;;29.79;38.10
69402;BME280;56589;51.992;5.924;2022-07-12T09:10:10;102006.31;;;30.00;38.09
69402;BME280;56589;51.992;5.924;2022-07-12T09:12:39;101995.72;;;30.33;37.54
69402;BME280;56589;51.992;5.924;2022-07-12T09:15:17;101999.22;;;30.62;37.12
69402;BME280;56589;51.992;5.924;2022-07-12T09:17:57;102005.09;;;30.72;36.54
69402;BME280;56589;51.992;5.924;2022-07-12T09:20:25;101997.50;;;30.54;36.74
69402;BME280;56589;51.992;5.924;2022-07-12T09:22:53;101993.31;;;30.51;36.93
69402;BME280;56589;51.992;5.924;2022-07-12T09:25:21;101997.13;;;30.64;36.83
69402;BME280;56589;51.992;5.924;2022-07-12T09:27:54;101994.31;;;30.85;36.77
69402;BME280;56589;51.992;5.924;2022-07-12T09:30:22;101989.81;;;31.12;36.67
69402;BME280;56589;51.992;5.924;2022-07-12T09:32:52;101993.88;;;31.43;36.17
69402;BME280;56589;51.992;5.924;2022-07-12T09:35:22;101990.94;;;31.64;35.31
69402;BME280;56589;51.992;5.924;2022-07-12T09:37:48;101984.28;;;31.67;34.74
69402;BME280;56589;51.992;5.924;2022-07-12T09:40:14;101988.00;;;31.66;34.76
69402;BME280;56589;51.992;5.924;2022-07-12T09:42:41;101984.28;;;31.53;34.94
69402;BME280;56589;51.992;5.924;2022-07-12T09:45:08;101982.78;;;31.44;34.96
69402;BME280;56589;51.992;5.924;2022-07-12T09:47:35;101984.69;;;31.57;34.66
69402;BME280;56589;51.992;5.924;2022-07-12T09:50:05;101980.72;;;31.66;34.90
69402;BME280;56589;51.992;5.924;2022-07-12T09:52:32;101979.25;;;31.77;34.58
69402;BME280;56589;51.992;5.924;2022-07-12T09:55:03;101971.53;;;31.74;34.27
69402;BME280;56589;51.992;5.924;2022-07-12T09:57:33;101978.63;;;31.88;34.36
69402;BME280;56589;51.992;5.924;2022-07-12T10:00:06;101973.19;;;31.61;33.33
69402;BME280;56589;51.992;5.924;2022-07-12T10:02:33;101971.91;;;31.31;34.29
69402;BME280;56589;51.992;5.924;2022-07-12T10:05:04;101967.78;;;31.35;34.40
69402;BME280;56589;51.992;5.924;2022-07-12T10:07:32;101964.00;;;31.43;34.48
69402;BME280;56589;51.992;5.924;2022-07-12T10:10:01;101961.91;;;31.51;34.24
69402;BME280;56589;51.992;5.924;2022-07-12T10:12:27;101964.63;;;31.65;34.13
69402;BME280;56589;51.992;5.924;2022-07-12T10:14:59;101972.34;;;31.81;33.69
69402;BME280;56589;51.992;5.924;2022-07-12T10:17:29;101975.28;;;31.86;33.80
69402;BME280;56589;51.992;5.924;2022-07-12T10:20:16;101972.34;;;32.07;32.80
69402;BME280;56589;51.992;5.924;2022-07-12T10:22:44;101974.00;;;32.15;33.38
69402;BME280;56589;51.992;5.924;2022-07-12T10:25:28;101969.38;;;32.22;32.43
69402;BME280;56589;51.992;5.924;2022-07-12T10:27:55;101964.34;;;32.26;32.82
69402;BME280;56589;51.992;5.924;2022-07-12T10:30:22;101968.09;;;32.31;32.46
69402;BME280;56589;51.992;5.924;2022-07-12T10:32:50;101969.16;;;32.24;32.40
69402;BME280;56589;51.992;5.924;2022-07-12T10:35:22;101969.63;;;32.07;32.88
69402;BME280;56589;51.992;5.924;2022-07-12T10:38:19;101967.78;;;31.88;32.94
69402;BME280;56589;51.992;5.924;2022-07-12T10:40:47;101962.56;;;31.60;33.09
69402;BME280;56589;51.992;5.924;2022-07-12T10:43:19;101970.47;;;31.35;33.04
69402;BME280;56589;51.992;5.924;2022-07-12T10:45:48;101971.66;;;31.19;33.32
69402;BME280;56589;51.992;5.924;2022-07-12T10:48:21;101966.63;;;31.16;32.99
69402;BME280;56589;51.992;5.924;2022-07-12T10:51:15;101970.22;;;31.23;32.83
69402;BME280;56589;51.992;5.924;2022-07-12T10:53:42;101966.47;;;31.24;33.16
69402;BME280;56589;51.992;5.924;2022-07-12T10:56:13;101963.31;;;31.27;33.11
69402;BME280;56589;51.992;5.924;2022-07-12T10:58:41;101959.56;;;31.28;32.97
69402;BME280;56589;51.992;5.924;2022-07-12T11:01:10;101951.22;;;31.17;33.02
69402;BME280;56589;51.992;5.924;2022-07-12T11:03:39;101970.00;;;31.18;32.52
69402;BME280;56589;51.992;5.924;2022-07-12T11:06:07;101968.31;;;31.11;32.71
69402;BME280;56589;51.992;5.924;2022-07-12T11:08:49;101962.84;;;30.97;32.58
69402;BME280;56589;51.992;5.924;2022-07-12T11:11:17;101961.94;;;30.77;33.09
69402;BME280;56589;51.992;5.924;2022-07-12T11:13:44;101962.34;;;30.74;33.59
69402;BME280;56589;51.992;5.924;2022-07-12T11:16:11;101966.59;;;30.96;32.93
69402;BME280;56589;51.992;5.924;2022-07-12T11:18:38;101966.88;;;31.21;32.63
69402;BME280;56589;51.992;5.924;2022-07-12T11:21:04;101974.59;;;31.24;32.56
69402;BME280;56589;51.992;5.924;2022-07-12T11:23:31;101971.88;;;31.11;33.02
69402;BME280;56589;51.992;5.924;2022-07-12T11:26:01;101966.84;;;31.01;32.93
69402;BME280;56589;51.992;5.924;2022-07-12T11:28:29;101961.78;;;30.92;32.99
69402;BME280;56589;51.992;5.924;2022-07-12T11:31:01;101970.56;;;30.94;33.14
69402;BME280;56589;51.992;5.924;2022-07-12T11:33:29;101965.56;;;31.04;33.11
69402;BME280;56589;51.992;5.924;2022-07-12T11:35:56;101963.47;;;30.93;33.44
69402;BME280;56589;51.992;5.924;2022-07-12T11:38:23;101967.41;;;30.90;32.88
69402;BME280;56589;51.992;5.924;2022-07-12T11:40:54;101959.97;;;31.05;33.18
69402;BME280;56589;51.992;5.924;2022-07-12T11:43:23;101962.09;;;31.23;32.55
69402;BME280;56589;51.992;5.924;2022-07-12T11:45:53;101968.13;;;31.32;32.70
69402;BME280;56589;51.992;5.924;2022-07-12T11:48:20;101963.56;;;31.39;32.21
69402;BME280;56589;51.992;5.924;2022-07-12T11:50:47;101958.16;;;31.39;32.14
69402;BME280;56589;51.992;5.924;2022-07-12T11:53:17;101953.78;;;31.38;32.62
69402;BME280;56589;51.992;5.924;2022-07-12T11:55:44;101959.16;;;31.31;32.30
69402;BME280;56589;51.992;5.924;2022-07-12T11:58:12;101951.59;;;31.07;33.04
69402;BME280;56589;51.992;5.924;2022-07-12T12:00:41;101951.19;;;31.03;33.46
69402;BME280;56589;51.992;5.924;2022-07-12T12:03:08;101955.19;;;31.21;33.10
69402;BME280;56589;51.992;5.924;2022-07-12T12:05:35;101954.56;;;31.25;33.30
69402;BME280;56589;51.992;5.924;2022-07-12T12:08:02;101952.91;;;31.31;32.84
69402;BME280;56589;51.992;5.924;2022-07-12T12:10:28;101933.50;;;31.34;33.13
69402;BME280;56589;51.992;5.924;2022-07-12T12:12:55;101946.88;;;31.42;33.38
69402;BME280;56589;51.992;5.924;2022-07-12T12:15:24;101938.13;;;31.53;32.79
69402;BME280;56589;51.992;5.924;2022-07-12T12:17:55;101934.72;;;31.31;32.02
69402;BME280;56589;51.992;5.924;2022-07-12T12:20:24;101933.66;;;31.06;32.83
69402;BME280;56589;51.992;5.924;2022-07-12T12:22:52;101931.13;;;30.98;32.53
69402;BME280;56589;51.992;5.924;2022-07-12T12:25:20;101933.00;;;30.91;33.06
69402;BME280;56589;51.992;5.924;2022-07-12T12:27:47;101925.91;;;30.96;33.14
69402;BME280;56589;51.992;5.924;2022-07-12T12:30:16;101924.91;;;31.11;32.97
69402;BME280;56589;51.992;5.924;2022-07-12T12:32:46;101923.25;;;31.29;32.38
69402;BME280;56589;51.992;5.924;2022-07-12T12:35:18;101921.63;;;31.48;32.49
69402;BME280;56589;51.992;5.924;2022-07-12T12:37:51;101924.13;;;31.56;32.00
69402;BME280;56589;51.992;5.924;2022-07-12T12:40:20;101926.00;;;31.49;31.88
69402;BME280;56589;51.992;5.924;2022-07-12T12:42:47;101924.34;;;31.48;32.11
69402;BME280;56589;51.992;5.924;2022-07-12T12:45:20;101921.63;;;31.48;31.62
69402;BME280;56589;51.992;5.924;2022-07-12T12:47:54;101928.72;;;31.36;32.04
69402;BME280;56589;51.992;5.924;2022-07-12T12:50:45;101933.06;;;31.30;31.52